Time;durP1;ratioP1;P1;durP2;ratioP2;P2;SDS_P1;SDS_P2;PMS_P1;PMS_P2;Temp;Humidity;BMP_temperature;BMP_pressure;BME280_temperature;BME280_humidity;BME280_pressure;Samples;Min_cycle;Max_cycle;Signal;HPM_P1;HPM_P2
2022/09/27 00:00:10;;;;;;;4.00;3.60;;;12.40;99.90;;;;;;2041271;29;20039;-73
2022/09/27 00:01:15;;;;;;;6.35;3.80;;;12.50;99.90;;;;;;2048837;29;20198;-73
2022/09/27 00:02:16;;;;;;;5.65;3.65;;;12.40;99.90;;;;;;2048515;29;20039;-73
2022/09/27 00:03:17;;;;;;;4.03;3.63;;;12.40;99.90;;;;;;2041473;29;20126;-73
2022/09/27 00:04:17;;;;;;;6.00;3.63;;;12.40;99.90;;;;;;2041088;29;20047;-73
2022/09/27 00:05:18;;;;;;;3.97;3.58;;;12.40;99.90;;;;;;2040920;29;20028;-74
2022/09/27 00:06:26;;;;;;;4.75;3.63;;;12.40;99.90;;;;;;2041632;29;20475;-73
2022/09/27 00:07:27;;;;;;;5.18;3.65;;;12.40;99.90;;;;;;2041401;29;20103;-74
2022/09/27 00:08:27;;;;;;;4.30;3.30;;;12.40;99.90;;;;;;2041520;29;20032;-73
2022/09/27 00:09:29;;;;;;;4.45;3.50;;;12.50;99.90;;;;;;2041544;29;20024;-73
2022/09/27 00:10:30;;;;;;;3.53;3.10;;;12.40;99.90;;;;;;2041411;29;20056;-73
2022/09/27 00:11:36;;;;;;;3.65;3.25;;;12.50;99.90;;;;;;2041205;29;20503;-73
2022/09/27 00:12:37;;;;;;;3.58;3.28;;;12.50;99.90;;;;;;2041191;29;20130;-73
2022/09/27 00:13:38;;;;;;;4.43;3.53;;;12.50;99.90;;;;;;2041218;29;20024;-73
2022/09/27 00:14:39;;;;;;;5.28;3.40;;;12.50;99.90;;;;;;2041156;29;20059;-73
2022/09/27 00:15:39;;;;;;;4.05;3.17;;;12.50;99.90;;;;;;2041437;29;20515;-74
2022/09/27 00:16:41;;;;;;;5.03;3.50;;;12.50;99.90;;;;;;2041144;29;20423;-73
2022/09/27 00:17:42;;;;;;;4.80;3.33;;;12.50;99.90;;;;;;2041214;29;20031;-73
2022/09/27 00:18:43;;;;;;;4.20;3.08;;;12.50;99.90;;;;;;2041057;29;20794;-73
2022/09/27 00:19:44;;;;;;;3.58;3.00;;;12.50;99.90;;;;;;2041250;29;20087;-75
2022/09/27 00:20:45;;;;;;;3.50;3.00;;;12.50;99.90;;;;;;2041329;29;20054;-73
2022/09/27 00:21:46;;;;;;;3.40;3.00;;;12.50;99.90;;;;;;2040559;29;20111;-73
2022/09/27 00:22:47;;;;;;;4.25;3.20;;;12.50;99.90;;;;;;2040410;29;20410;-73
2022/09/27 00:23:48;;;;;;;3.72;3.00;;;12.50;99.90;;;;;;2040958;29;20103;-72
2022/09/27 00:24:49;;;;;;;4.78;3.00;;;12.50;99.90;;;;;;2041124;29;20031;-72
2022/09/27 00:25:57;;;;;;;3.30;3.00;;;12.40;99.90;;;;;;2040986;29;20039;-73
2022/09/27 00:26:58;;;;;;;4.55;3.03;;;12.40;99.90;;;;;;2041116;29;20020;-73
2022/09/27 00:27:59;;;;;;;4.97;3.20;;;12.40;99.90;;;;;;2048311;29;20031;-73
2022/09/27 00:28:59;;;;;;;3.47;3.00;;;12.50;99.90;;;;;;2048161;29;20027;-72
2022/09/27 00:30:00;;;;;;;4.10;3.00;;;12.50;99.90;;;;;;2041175;29;20032;-73
2022/09/27 00:31:02;;;;;;;4.10;3.10;;;12.50;99.90;;;;;;2040981;29;20032;-73
2022/09/27 00:32:02;;;;;;;3.25;2.95;;;12.50;99.90;;;;;;2041126;29;20394;-73
2022/09/27 00:33:03;;;;;;;4.97;3.20;;;12.50;99.90;;;;;;2040411;29;20074;-72
2022/09/27 00:34:05;;;;;;;4.05;3.03;;;12.50;99.90;;;;;;2040392;29;20028;-73
2022/09/27 00:35:07;;;;;;;3.88;3.00;;;12.50;99.90;;;;;;2040701;29;20040;-73
2022/09/27 00:36:09;;;;;;;3.95;3.08;;;12.50;99.90;;;;;;2040918;29;20031;-73
2022/09/27 00:37:10;;;;;;;3.90;2.90;;;12.50;99.90;;;;;;2042438;29;20032;-73
2022/09/27 00:38:11;;;;;;;3.17;2.80;;;12.50;99.90;;;;;;2042647;29;20090;-73
2022/09/27 00:39:13;;;;;;;4.15;2.65;;;12.50;99.90;;;;;;2042475;29;20486;-72
2022/09/27 00:40:14;;;;;;;3.63;2.60;;;12.50;99.90;;;;;;2041793;29;20023;-72
2022/09/27 00:41:26;;;;;;;4.07;3.00;;;12.50;99.90;;;;;;2042128;29;20039;-72
2022/09/27 00:42:26;;;;;;;3.95;2.90;;;12.50;99.90;;;;;;2041477;29;20106;-73
2022/09/27 00:43:43;;;;;;;4.18;2.67;;;12.50;99.90;;;;;;2041297;29;20039;-72
2022/09/27 00:45:00;;;;;;;3.30;2.72;;;12.50;99.90;;;;;;2041420;29;20386;-73
2022/09/27 00:46:02;;;;;;;3.15;2.85;;;12.50;99.90;;;;;;2048642;29;20066;-73
2022/09/27 00:47:13;;;;;;;3.65;3.10;;;12.50;99.90;;;;;;2048338;29;20031;-73
2022/09/27 00:48:17;;;;;;;3.40;3.10;;;12.50;99.90;;;;;;2040649;29;20056;-72
2022/09/27 00:49:38;;;;;;;3.33;2.88;;;12.50;99.90;;;;;;2040534;29;20115;-72
2022/09/27 00:50:43;;;;;;;3.47;2.80;;;12.50;99.90;;;;;;2041557;29;20055;-73
2022/09/27 00:51:50;;;;;;;3.83;3.08;;;12.50;99.90;;;;;;2041599;29;20028;-73
2022/09/27 00:52:58;;;;;;;2.92;2.63;;;12.50;99.90;;;;;;2041601;29;20086;-73
2022/09/27 00:54:00;;;;;;;3.08;2.50;;;12.50;99.90;;;;;;2048394;29;20039;-74
2022/09/27 00:55:10;;;;;;;2.78;2.50;;;12.50;99.90;;;;;;2040629;29;20042;-73
2022/09/27 00:56:26;;;;;;;5.47;2.70;;;12.60;99.90;;;;;;2040697;29;20035;-73
2022/09/27 00:57:27;;;;;;;3.20;2.70;;;12.50;99.90;;;;;;2041331;29;20084;-73
2022/09/27 00:58:32;;;;;;;2.83;2.53;;;12.50;99.90;;;;;;2032793;29;20091;-73
2022/09/27 01:00:00;;;;;;;2.90;2.60;;;12.50;99.90;;;;;;2040785;29;20036;-73
2022/09/27 01:01:06;;;;;;;3.00;2.70;;;12.50;99.90;;;;;;2040571;29;20035;-73
2022/09/27 01:02:08;;;;;;;3.75;2.90;;;12.50;99.90;;;;;;2033726;29;20791;-73
2022/09/27 01:03:18;;;;;;;3.08;2.70;;;12.50;99.90;;;;;;2033216;29;20036;-73
2022/09/27 01:04:25;;;;;;;3.33;2.45;;;12.50;99.90;;;;;;2034045;29;20091;-73
2022/09/27 01:05:28;;;;;;;3.20;2.60;;;12.50;99.90;;;;;;2041721;29;20024;-73
2022/09/27 01:06:29;;;;;;;3.15;2.80;;;12.50;99.90;;;;;;2040879;29;20072;-73
2022/09/27 01:07:30;;;;;;;2.95;2.65;;;12.50;99.90;;;;;;2040959;29;20406;-73
2022/09/27 01:08:31;;;;;;;3.15;2.53;;;12.60;99.90;;;;;;2048658;29;20034;-73
2022/09/27 01:09:33;;;;;;;2.83;2.55;;;12.60;99.90;;;;;;2041629;29;20055;-74
2022/09/27 01:10:39;;;;;;;2.80;2.50;;;12.60;99.90;;;;;;2040838;29;20027;-72
2022/09/27 01:12:07;;;;;;;2.78;2.40;;;12.60;99.90;;;;;;2040894;29;20477;-73
2022/09/27 01:13:26;;;;;;;2.83;2.60;;;12.60;99.90;;;;;;2040967;29;20028;-73
2022/09/27 01:14:51;;;;;;;4.25;2.63;;;12.60;99.90;;;;;;2048388;29;20572;-73
2022/09/27 01:16:00;;;;;;;4.32;2.78;;;12.60;99.90;;;;;;2048280;28;20031;-73
2022/09/27 01:17:33;;;;;;;3.83;2.80;;;12.60;99.90;;;;;;2040561;29;20062;-74
2022/09/27 01:19:08;;;;;;;3.15;2.72;;;12.60;99.90;;;;;;2027626;29;20031;-72
2022/09/27 01:20:51;;;;;;;3.58;2.92;;;12.60;99.90;;;;;;2044400;29;20094;-72
2022/09/27 01:22:00;;;;;;;4.80;3.08;;;12.50;99.90;;;;;;2042980;29;20086;-73
2022/09/27 01:23:32;;;;;;;3.80;3.15;;;12.50;99.90;;;;;;2048197;29;20505;-72
2022/09/27 01:24:51;;;;;;;3.97;3.08;;;12.50;99.90;;;;;;2040330;29;20027;-73
2022/09/27 01:26:30;;;;;;;5.15;2.85;;;12.50;99.90;;;;;;2042280;29;20562;-73
2022/09/27 01:27:57;;;;;;;3.83;2.90;;;12.50;99.90;;;;;;2023772;29;20444;-73
2022/09/27 01:29:14;;;;;;;3.03;2.72;;;12.50;99.90;;;;;;2020563;29;20083;-72
2022/09/27 01:30:25;;;;;;;3.60;2.92;;;12.50;99.90;;;;;;2031918;29;20066;-73
2022/09/27 01:31:38;;;;;;;5.80;3.30;;;12.40;99.90;;;;;;2031632;29;20172;-72
2022/09/27 01:33:05;;;;;;;3.88;3.20;;;12.50;99.90;;;;;;2033383;29;20028;-72
2022/09/27 01:34:15;;;;;;;3.60;3.10;;;12.40;99.90;;;;;;2039964;29;20054;-72
2022/09/27 01:35:27;;;;;;;4.82;3.20;;;12.40;99.90;;;;;;2040133;29;20028;-71
2022/09/27 01:36:37;;;;;;;4.55;3.42;;;12.40;99.90;;;;;;2039992;29;20151;-72
2022/09/27 01:37:49;;;;;;;4.30;3.33;;;12.40;99.90;;;;;;2040061;29;20375;-72
2022/09/27 01:39:32;;;;;;;4.10;3.20;;;12.40;99.90;;;;;;2041697;29;20040;-72
2022/09/27 01:41:09;;;;;;;4.25;3.28;;;12.40;99.90;;;;;;2032056;29;20621;-72
2022/09/27 01:42:24;;;;;;;4.22;3.70;;;12.40;99.90;;;;;;2040825;29;20036;-72
2022/09/27 01:43:54;;;;;;;3.85;3.35;;;12.40;99.90;;;;;;2040244;29;20030;-72
2022/09/27 01:45:05;;;;;;;5.03;3.30;;;12.30;99.90;;;;;;2036232;29;20438;-72
2022/09/27 01:46:22;;;;;;;3.88;3.47;;;12.40;99.90;;;;;;2033986;29;20025;-72
2022/09/27 01:48:09;;;;;;;4.90;3.58;;;12.40;99.90;;;;;;2037487;29;20042;-72
2022/09/27 01:49:55;;;;;;;4.60;3.70;;;12.40;99.90;;;;;;2039719;29;20047;-72
2022/09/27 01:51:28;;;;;;;4.70;4.05;;;12.40;99.90;;;;;;2030110;29;20051;-72
2022/09/27 01:52:42;;;;;;;4.97;3.90;;;12.40;99.90;;;;;;2031797;29;20032;-73
2022/09/27 01:53:47;;;;;;;4.38;3.72;;;12.40;99.90;;;;;;2047988;28;20035;-73
2022/09/27 01:55:11;;;;;;;4.82;4.00;;;12.30;99.90;;;;;;2045480;29;20047;-72
2022/09/27 01:56:36;;;;;;;4.30;3.90;;;12.40;99.90;;;;;;2039916;29;20118;-72
2022/09/27 01:57:52;;;;;;;5.07;4.10;;;12.40;99.90;;;;;;2039838;29;20031;-73
2022/09/27 01:59:05;;;;;;;5.10;3.97;;;12.40;99.90;;;;;;2033506;29;20036;-72
2022/09/27 02:00:09;;;;;;;4.03;3.63;;;12.40;99.90;;;;;;2033010;29;20506;-72
2022/09/27 02:01:18;;;;;;;4.05;3.63;;;12.40;99.90;;;;;;2039901;29;20035;-72
2022/09/27 02:02:23;;;;;;;4.30;3.80;;;12.40;99.90;;;;;;2039867;29;20053;-72
2022/09/27 02:03:48;;;;;;;5.18;3.80;;;12.30;99.90;;;;;;2040140;29;20063;-71
2022/09/27 02:05:16;;;;;;;5.05;3.80;;;12.30;99.90;;;;;;2040498;29;20681;-72
2022/09/27 02:06:31;;;;;;;4.03;3.60;;;12.30;99.90;;;;;;2039673;29;20537;-72
2022/09/27 02:07:47;;;;;;;4.75;3.85;;;12.30;99.90;;;;;;2034255;29;20367;-72
2022/09/27 02:08:57;;;;;;;4.43;3.67;;;12.30;99.90;;;;;;2032779;29;20115;-73
2022/09/27 02:10:21;;;;;;;4.25;3.85;;;12.40;99.90;;;;;;2043446;29;20075;-72
2022/09/27 02:11:28;;;;;;;4.20;3.80;;;12.40;99.90;;;;;;2039902;29;20668;-73
2022/09/27 02:13:01;;;;;;;4.38;3.50;;;12.30;99.90;;;;;;2033928;29;20064;-73
2022/09/27 02:14:16;;;;;;;4.00;3.60;;;12.40;99.90;;;;;;2034135;29;20036;-73
2022/09/27 02:15:25;;;;;;;4.10;3.70;;;12.30;99.90;;;;;;2042313;29;20031;-71
2022/09/27 02:16:52;;;;;;;5.03;3.70;;;12.30;99.90;;;;;;2039603;29;20275;-71
2022/09/27 02:18:14;;;;;;;4.03;3.63;;;12.30;99.90;;;;;;2039782;29;20032;-73
2022/09/27 02:19:39;;;;;;;3.70;3.40;;;12.40;99.90;;;;;;2047363;29;20564;-73
2022/09/27 02:20:48;;;;;;;4.10;3.70;;;12.40;99.90;;;;;;2039498;29;20038;-73
2022/09/27 02:22:11;;;;;;;4.75;3.60;;;12.40;99.90;;;;;;2032998;29;20135;-73
2022/09/27 02:23:47;;;;;;;3.50;3.20;;;12.30;99.90;;;;;;2039041;29;20375;-72
2022/09/27 02:24:59;;;;;;;4.10;3.70;;;12.40;99.90;;;;;;2047720;29;20596;-73
2022/09/27 02:26:19;;;;;;;4.47;3.72;;;12.30;99.90;;;;;;2039535;29;20127;-73
2022/09/27 02:27:26;;;;;;;3.67;3.25;;;12.40;99.90;;;;;;2033904;29;20039;-72
2022/09/27 02:28:30;;;;;;;3.80;3.38;;;12.30;99.90;;;;;;2032597;29;20034;-73
2022/09/27 02:29:41;;;;;;;3.53;3.22;;;12.40;99.90;;;;;;2040244;29;20390;-73
2022/09/27 02:30:43;;;;;;;4.85;3.22;;;12.30;99.90;;;;;;2039533;29;20462;-73
2022/09/27 02:31:53;;;;;;;;;;;12.40;99.90;;;;;;2033723;29;20028;-73
2022/09/27 02:32:54;;;;;;;5.43;3.05;;;12.30;99.90;;;;;;2031713;29;19915;-73
2022/09/27 02:34:01;;;;;;;3.90;3.20;;;12.40;99.90;;;;;;2031619;29;20084;-73
2022/09/27 02:35:18;;;;;;;4.40;3.38;;;12.30;99.90;;;;;;2024997;29;20131;-73
2022/09/27 02:36:20;;;;;;;3.45;2.75;;;12.40;99.90;;;;;;2028277;29;20064;-74
2022/09/27 02:37:21;;;;;;;3.53;2.90;;;12.30;99.90;;;;;;2039751;29;20546;-73
2022/09/27 02:38:23;;;;;;;3.50;2.95;;;12.40;99.90;;;;;;2039670;29;20038;-73
2022/09/27 02:39:24;;;;;;;3.03;2.80;;;12.40;99.90;;;;;;2039461;29;20035;-73
2022/09/27 02:40:45;;;;;;;3.50;3.10;;;12.40;99.90;;;;;;2032775;29;20085;-73
2022/09/27 02:41:46;;;;;;;3.60;3.20;;;12.40;99.90;;;;;;2025289;29;20072;-73
2022/09/27 02:42:47;;;;;;;4.43;3.10;;;12.30;99.90;;;;;;2031721;29;20032;-73
2022/09/27 02:43:52;;;;;;;3.63;3.15;;;12.30;99.90;;;;;;2039380;29;20130;-73
2022/09/27 02:44:54;;;;;;;3.85;3.13;;;12.30;99.90;;;;;;2040231;29;20032;-73
2022/09/27 02:45:57;;;;;;;4.93;3.17;;;12.30;99.90;;;;;;2039659;29;20024;-73
2022/09/27 02:47:27;;;;;;;3.95;3.55;;;12.30;99.90;;;;;;2039516;29;20059;-73
2022/09/27 02:49:01;;;;;;;4.32;3.45;;;12.40;99.90;;;;;;2035181;29;20020;-73
2022/09/27 02:50:25;;;;;;;6.18;4.10;;;12.30;99.90;;;;;;2035353;29;20039;-73
2022/09/27 02:52:08;;;;;;;5.03;3.90;;;12.30;99.90;;;;;;2047715;29;20036;-73
2022/09/27 02:53:44;;;;;;;7.97;4.13;;;12.30;99.90;;;;;;2047392;29;20494;-73
2022/09/27 02:55:29;;;;;;;6.05;4.28;;;12.30;99.90;;;;;;2031240;29;20048;-75
2022/09/27 02:56:57;;;;;;;7.05;4.40;;;12.30;99.90;;;;;;2037833;29;20134;-73
2022/09/27 02:58:23;;;;;;;5.20;4.55;;;12.30;99.90;;;;;;2040256;29;20150;-73
2022/09/27 03:00:00;;;;;;;6.18;4.95;;;12.30;99.90;;;;;;2040103;29;20047;-73
2022/09/27 03:01:24;;;;;;;5.93;4.70;;;12.30;99.90;;;;;;2047514;29;20035;-73
2022/09/27 03:02:56;;;;;;;6.28;4.38;;;12.30;99.90;;;;;;2039019;29;20048;-73
2022/09/27 03:04:22;;;;;;;5.32;4.40;;;12.30;99.90;;;;;;2039717;29;20056;-74
2022/09/27 03:05:41;;;;;;;5.22;4.70;;;12.30;99.90;;;;;;2040062;29;20067;-73
2022/09/27 03:06:45;;;;;;;7.30;5.18;;;12.30;99.90;;;;;;2047500;29;20442;-74
2022/09/27 03:07:48;;;;;;;5.30;4.80;;;12.30;99.90;;;;;;2039683;29;20035;-73
2022/09/27 03:08:49;;;;;;;5.50;4.70;;;12.30;99.90;;;;;;2039305;29;20028;-72
2022/09/27 03:09:53;;;;;;;5.47;4.80;;;12.30;99.90;;;;;;2039695;29;20028;-73
2022/09/27 03:10:54;;;;;;;7.35;5.10;;;12.30;99.90;;;;;;2039302;29;20087;-73
2022/09/27 03:11:54;;;;;;;6.53;4.70;;;12.30;99.90;;;;;;2039169;29;20032;-73
2022/09/27 03:12:57;;;;;;;6.68;4.90;;;12.30;99.90;;;;;;2047600;29;20775;-73
2022/09/27 03:13:58;;;;;;;6.38;4.70;;;12.30;99.90;;;;;;2039438;29;20067;-73
2022/09/27 03:15:00;;;;;;;6.32;4.80;;;12.30;99.90;;;;;;2031880;29;20163;-73
2022/09/27 03:16:19;;;;;;;5.95;4.93;;;12.30;99.90;;;;;;2034135;29;20032;-73
2022/09/27 03:17:35;;;;;;;6.68;4.45;;;12.30;99.90;;;;;;2035873;29;20419;-73
2022/09/27 03:19:05;;;;;;;5.07;4.30;;;12.30;99.90;;;;;;2039065;29;20124;-73
2022/09/27 03:20:34;;;;;;;5.75;4.53;;;12.30;99.90;;;;;;2040097;29;20088;-73
2022/09/27 03:21:41;;;;;;;5.45;4.53;;;12.30;99.90;;;;;;2039729;29;20589;-73
2022/09/27 03:22:43;;;;;;;5.70;4.60;;;12.30;99.90;;;;;;2039655;29;20031;-73
2022/09/27 03:23:44;;;;;;;6.53;4.20;;;12.30;99.90;;;;;;2039638;29;20031;-73
2022/09/27 03:24:45;;;;;;;5.00;4.45;;;12.30;99.90;;;;;;2031774;29;20091;-72
2022/09/27 03:25:45;;;;;;;8.15;5.32;;;12.30;99.90;;;;;;2039607;29;20044;-73
2022/09/27 03:26:46;;;;;;;6.80;5.07;;;12.20;99.90;;;;;;2047542;29;20062;-73
2022/09/27 03:27:47;;;;;;;7.10;4.90;;;12.20;99.90;;;;;;2031938;29;20114;-73
2022/09/27 03:28:48;;;;;;;6.30;4.85;;;12.20;99.90;;;;;;2031616;29;20084;-73
2022/09/27 03:29:48;;;;;;;6.65;4.90;;;12.20;99.90;;;;;;2047786;29;20047;-73
2022/09/27 03:30:49;;;;;;;7.03;5.00;;;12.20;99.90;;;;;;2039599;29;20031;-73
2022/09/27 03:32:10;;;;;;;5.95;4.72;;;12.10;99.90;;;;;;2039811;29;20585;-72
2022/09/27 03:33:24;;;;;;;6.43;5.15;;;12.10;99.90;;;;;;2047467;29;20039;-73
2022/09/27 03:34:30;;;;;;;6.78;5.03;;;12.10;99.90;;;;;;2047620;29;20023;-73
2022/09/27 03:35:31;;;;;;;7.80;5.22;;;12.10;99.90;;;;;;2046947;29;20027;-73
2022/09/27 03:36:32;;;;;;;8.05;5.43;;;12.10;99.90;;;;;;2039522;29;20047;-73
2022/09/27 03:37:33;;;;;;;8.18;5.38;;;12.10;99.90;;;;;;2039726;29;20031;-72
2022/09/27 03:38:34;;;;;;;5.32;4.78;;;12.00;99.90;;;;;;2047185;29;20581;-72
2022/09/27 03:39:34;;;;;;;7.30;5.18;;;12.10;99.90;;;;;;2039350;29;20430;-73
2022/09/27 03:40:35;;;;;;;6.07;5.25;;;12.00;99.90;;;;;;2039777;29;20067;-73
2022/09/27 03:41:37;;;;;;;6.43;5.68;;;12.00;99.90;;;;;;2039619;28;20450;-73
2022/09/27 03:42:38;;;;;;;9.15;6.45;;;12.00;99.90;;;;;;2040831;29;20596;-73
2022/09/27 03:43:40;;;;;;;8.23;6.03;;;12.00;99.90;;;;;;2042604;29;20437;-73
2022/09/27 03:44:41;;;;;;;8.38;6.10;;;12.00;99.90;;;;;;2034041;29;20032;-73
2022/09/27 03:45:44;;;;;;;7.72;6.20;;;12.00;99.90;;;;;;2034159;29;20041;-73
2022/09/27 03:46:45;;;;;;;8.90;6.28;;;12.00;99.90;;;;;;2042000;29;20043;-73
2022/09/27 03:47:46;;;;;;;9.57;6.28;;;12.00;99.90;;;;;;2042024;29;20032;-72
2022/09/27 03:48:47;;;;;;;8.18;6.10;;;11.90;99.90;;;;;;2041898;29;20444;-73
2022/09/27 03:49:49;;;;;;;6.70;5.90;;;11.90;99.90;;;;;;2041728;29;20477;-73
2022/09/27 03:50:50;;;;;;;6.68;5.90;;;11.90;99.90;;;;;;2032843;29;20071;-74
2022/09/27 03:51:51;;;;;;;7.57;6.38;;;11.90;99.90;;;;;;2041126;29;20469;-73
2022/09/27 03:52:53;;;;;;;7.63;6.45;;;11.90;99.90;;;;;;2048807;29;20031;-73
2022/09/27 03:53:54;;;;;;;10.95;6.85;;;11.90;99.90;;;;;;2040740;29;20031;-73
2022/09/27 03:54:55;;;;;;;7.05;6.30;;;11.90;99.90;;;;;;2032960;29;20120;-73
2022/09/27 03:55:56;;;;;;;7.70;6.47;;;11.90;99.90;;;;;;2040968;29;20060;-73
2022/09/27 03:56:57;;;;;;;8.05;6.63;;;11.90;99.90;;;;;;2040910;29;20048;-73
2022/09/27 03:57:59;;;;;;;10.60;6.93;;;11.90;99.90;;;;;;2033184;29;20036;-73
2022/09/27 03:59:00;;;;;;;7.85;6.93;;;11.80;99.90;;;;;;2032677;29;20028;-74
2022/09/27 04:00:02;;;;;;;8.18;7.20;;;11.80;99.90;;;;;;2033078;29;20680;-73
2022/09/27 04:01:12;;;;;;;9.20;6.80;;;11.90;99.90;;;;;;2041956;29;20093;-73
2022/09/27 04:02:14;;;;;;;6.97;6.15;;;11.80;99.90;;;;;;2040813;29;20051;-74
2022/09/27 04:03:35;;;;;;;8.63;6.55;;;11.80;99.90;;;;;;2041183;29;20548;-73
2022/09/27 04:04:54;;;;;;;11.63;8.85;;;11.80;99.90;;;;;;2041514;29;20040;-73
2022/09/27 04:05:55;;;;;;;9.45;8.10;;;11.80;99.90;;;;;;2040699;29;20397;-73
2022/09/27 04:07:04;;;;;;;8.75;7.57;;;11.80;99.90;;;;;;2034188;29;20024;-74
2022/09/27 04:08:06;;;;;;;9.07;7.68;;;11.80;99.90;;;;;;2040598;29;20118;-73
2022/09/27 04:09:07;;;;;;;8.43;7.13;;;11.80;99.90;;;;;;2032643;29;20091;-73
2022/09/27 04:10:27;;;;;;;8.23;6.63;;;11.80;99.90;;;;;;2037863;29;20027;-74
2022/09/27 04:11:28;;;;;;;8.48;6.72;;;11.70;99.90;;;;;;2040889;29;20114;-73
2022/09/27 04:12:29;;;;;;;7.63;6.57;;;11.80;99.90;;;;;;2040982;29;20060;-74
2022/09/27 04:13:29;;;;;;;8.10;6.75;;;11.70;99.90;;;;;;2041041;29;20031;-74
2022/09/27 04:14:30;;;;;;;6.80;6.10;;;11.80;99.90;;;;;;2033294;29;20497;-74
2022/09/27 04:15:54;;;;;;;7.20;6.38;;;11.80;99.90;;;;;;2041030;29;20051;-74
2022/09/27 04:17:27;;;;;;;8.98;6.95;;;11.70;99.90;;;;;;2040330;29;20414;-75
2022/09/27 04:19:07;;;;;;;9.73;7.63;;;11.70;99.90;;;;;;2040194;29;20043;-75
2022/09/27 04:20:21;;;;;;;8.60;7.13;;;11.70;99.90;;;;;;2039866;29;20016;-75
2022/09/27 04:21:22;;;;;;;7.97;6.97;;;11.70;99.90;;;;;;2040869;29;20102;-73
2022/09/27 04:22:25;;;;;;;8.50;6.78;;;11.70;99.90;;;;;;2041157;29;20036;-74
2022/09/27 04:23:27;;;;;;;8.20;6.78;;;11.70;99.90;;;;;;2048683;29;20028;-74
2022/09/27 04:24:28;;;;;;;7.85;6.72;;;11.60;99.90;;;;;;2040731;29;20032;-74
2022/09/27 04:25:46;;;;;;;7.95;6.47;;;11.60;99.90;;;;;;2034962;29;20055;-73
2022/09/27 04:26:55;;;;;;;10.07;7.28;;;11.70;99.90;;;;;;2034025;29;20674;-73
2022/09/27 04:28:00;;;;;;;8.13;6.85;;;11.60;99.90;;;;;;2040917;29;20036;-73
2022/09/27 04:29:01;;;;;;;8.55;6.40;;;11.70;99.90;;;;;;2041011;29;20030;-73
2022/09/27 04:30:04;;;;;;;8.05;6.65;;;11.60;99.90;;;;;;2040640;29;20039;-73
2022/09/27 04:31:43;;;;;;;8.48;6.85;;;11.60;99.90;;;;;;2038162;29;20019;-73
2022/09/27 04:32:58;;;;;;;9.43;7.15;;;11.60;99.90;;;;;;2034763;29;20175;-73
2022/09/27 04:34:17;;;;;;;9.85;7.53;;;11.60;99.90;;;;;;2040916;29;20032;-73
2022/09/27 04:37:02;;;;;;;8.57;6.53;;;11.60;99.90;;;;;;2035433;29;20035;-74
2022/09/27 04:38:13;;;;;;;8.15;6.75;;;11.60;99.90;;;;;;2042032;29;20542;-73
2022/09/27 04:39:13;;;;;;;8.38;7.07;;;11.60;99.90;;;;;;2048155;29;20050;-74
2022/09/27 04:40:16;;;;;;;8.98;7.35;;;11.60;99.90;;;;;;2040627;29;20608;-73
2022/09/27 04:41:17;;;;;;;8.98;7.15;;;11.60;99.90;;;;;;2041334;29;20079;-73
2022/09/27 04:42:18;;;;;;;9.00;7.43;;;11.60;99.90;;;;;;2041290;29;20031;-74
2022/09/27 04:43:19;;;;;;;8.40;7.32;;;11.60;99.90;;;;;;2033480;29;20040;-73
2022/09/27 04:44:19;;;;;;;7.95;7.15;;;11.60;99.90;;;;;;2041353;29;20031;-74
2022/09/27 04:45:23;;;;;;;8.05;7.25;;;11.60;99.90;;;;;;2041434;29;20486;-74
2022/09/27 04:46:24;;;;;;;7.97;7.18;;;11.60;99.90;;;;;;2033611;29;20032;-73
2022/09/27 04:47:25;;;;;;;9.13;7.40;;;11.60;99.90;;;;;;2041635;29;20070;-74
2022/09/27 04:48:25;;;;;;;8.68;7.47;;;11.60;99.90;;;;;;2041368;29;20028;-74
2022/09/27 04:49:27;;;;;;;9.85;8.07;;;11.60;99.90;;;;;;2041159;29;20031;-73
2022/09/27 04:50:28;;;;;;;10.25;9.15;;;11.60;99.90;;;;;;2041446;29;20023;-73
2022/09/27 04:51:37;;;;;;;10.95;8.70;;;11.60;99.90;;;;;;2041036;29;20050;-74
2022/09/27 04:52:39;;;;;;;10.63;8.43;;;11.60;99.90;;;;;;2040735;29;20030;-74
2022/09/27 04:53:39;;;;;;;9.93;8.73;;;11.60;99.90;;;;;;2039987;29;20118;-73
2022/09/27 04:54:41;;;;;;;10.95;9.05;;;11.60;99.90;;;;;;2040005;29;20028;-73
2022/09/27 04:55:46;;;;;;;11.25;8.90;;;11.60;99.90;;;;;;2041100;29;20050;-74
2022/09/27 04:56:47;;;;;;;11.82;9.00;;;11.60;99.90;;;;;;2048281;29;20680;-73
2022/09/27 04:57:48;;;;;;;9.82;8.15;;;11.60;99.90;;;;;;2040448;29;20039;-73
2022/09/27 04:58:49;;;;;;;9.40;7.97;;;11.60;99.90;;;;;;2032342;29;20107;-74
2022/09/27 04:59:50;;;;;;;11.15;8.27;;;11.60;99.90;;;;;;2032466;29;20081;-73
2022/09/27 05:00:54;;;;;;;11.00;8.40;;;11.60;99.90;;;;;;2040491;29;20118;-74
2022/09/27 05:02:22;;;;;;;9.63;8.43;;;11.60;99.90;;;;;;2040314;29;20059;-74
2022/09/27 05:03:42;;;;;;;9.20;8.20;;;11.60;99.90;;;;;;2040507;29;20055;-74
2022/09/27 05:04:45;;;;;;;9.40;8.23;;;11.60;99.90;;;;;;2040373;29;20023;-74
2022/09/27 05:05:46;;;;;;;9.88;8.27;;;11.60;99.90;;;;;;2032493;29;20521;-74
2022/09/27 05:06:47;;;;;;;9.05;7.70;;;11.60;99.90;;;;;;2032509;29;20111;-73
2022/09/27 05:07:57;;;;;;;9.77;8.25;;;11.60;99.90;;;;;;2041564;29;20032;-73
2022/09/27 05:09:17;;;;;;;9.70;8.20;;;11.60;99.90;;;;;;2045822;29;20233;-73
2022/09/27 05:10:23;;;;;;;9.15;8.10;;;11.60;99.90;;;;;;2040103;29;20118;-74
2022/09/27 05:11:25;;;;;;;12.57;7.93;;;11.60;99.90;;;;;;2032234;29;20036;-74
2022/09/27 05:12:54;;;;;;;9.75;8.02;;;11.60;99.90;;;;;;2040297;29;20020;-74
2022/09/27 05:13:55;;;;;;;11.93;8.32;;;11.60;99.90;;;;;;2039951;29;20039;-74
2022/09/27 05:14:58;;;;;;;9.43;8.40;;;11.60;99.90;;;;;;2040180;29;20031;-74
2022/09/27 05:16:18;;;;;;;11.15;8.85;;;11.60;99.90;;;;;;2046117;29;20501;-74
2022/09/27 05:17:38;;;;;;;10.60;8.60;;;11.60;99.90;;;;;;2041016;29;20098;-74
2022/09/27 05:19:16;;;;;;;10.60;8.90;;;11.70;99.90;;;;;;2038954;29;20366;-74
2022/09/27 05:20:46;;;;;;;11.77;9.33;;;11.70;99.90;;;;;;2036083;29;20051;-74
2022/09/27 05:21:54;;;;;;;9.95;8.93;;;11.70;99.90;;;;;;2031949;29;20642;-74
2022/09/27 05:22:55;;;;;;;11.13;9.10;;;11.70;99.90;;;;;;2031627;29;20024;-74
2022/09/27 05:23:57;;;;;;;10.27;8.82;;;11.70;99.90;;;;;;2031646;29;20032;-74
2022/09/27 05:24:57;;;;;;;10.18;8.80;;;11.70;99.90;;;;;;2035952;29;20043;-72
2022/09/27 05:26:04;;;;;;;9.85;8.68;;;11.70;99.90;;;;;;2040112;29;20444;-74
2022/09/27 05:27:07;;;;;;;9.57;8.57;;;11.70;99.90;;;;;;2040096;29;20034;-73
2022/09/27 05:28:08;;;;;;;9.60;8.60;;;11.70;99.90;;;;;;2040244;29;20617;-73
2022/09/27 05:29:09;;;;;;;9.55;8.55;;;11.70;99.90;;;;;;2039759;29;20118;-73
2022/09/27 05:30:10;;;;;;;10.40;8.50;;;11.70;99.90;;;;;;2047750;29;20027;-73
2022/09/27 05:31:19;;;;;;;9.90;8.30;;;11.70;99.90;;;;;;2040018;29;20044;-74
2022/09/27 05:32:20;;;;;;;10.20;8.88;;;11.80;99.90;;;;;;2032230;29;20593;-73
2022/09/27 05:33:25;;;;;;;9.45;8.20;;;11.80;99.90;;;;;;2032981;29;20056;-73
2022/09/27 05:35:01;;;;;;;11.65;9.63;;;11.80;99.90;;;;;;2040134;29;20036;-73
2022/09/27 05:36:03;;;;;;;9.85;8.73;;;11.80;99.90;;;;;;2047843;29;20556;-74
2022/09/27 05:37:05;;;;;;;10.60;8.70;;;11.80;99.90;;;;;;2039778;29;20523;-74
2022/09/27 05:38:11;;;;;;;10.65;9.52;;;11.80;99.90;;;;;;2039691;29;20031;-73
2022/09/27 05:39:17;;;;;;;10.73;8.77;;;11.80;99.90;;;;;;2039028;29;20019;-74
2022/09/27 05:40:18;;;;;;;10.18;8.32;;;11.80;99.90;;;;;;2039859;29;20038;-73
2022/09/27 05:41:19;;;;;;;10.75;8.75;;;11.80;99.90;;;;;;2039976;29;20027;-73
2022/09/27 05:42:20;;;;;;;10.25;8.38;;;11.80;99.90;;;;;;2039827;29;20573;-73
2022/09/27 05:43:21;;;;;;;9.63;8.70;;;11.80;99.90;;;;;;2039932;29;20600;-74
2022/09/27 05:44:24;;;;;;;9.57;8.57;;;11.80;99.90;;;;;;2039752;29;20020;-74
2022/09/27 05:45:31;;;;;;;10.35;8.95;;;11.80;99.90;;;;;;2040768;29;20126;-74
2022/09/27 05:46:37;;;;;;;9.73;8.73;;;11.80;99.90;;;;;;2047542;29;20042;-74
2022/09/27 05:47:38;;;;;;;9.80;8.80;;;11.90;99.90;;;;;;2048081;29;20106;-74
2022/09/27 05:48:39;;;;;;;10.05;8.65;;;11.90;99.90;;;;;;2039842;29;20027;-73
2022/09/27 05:49:41;;;;;;;10.68;9.50;;;11.90;99.90;;;;;;2039765;29;20101;-72
2022/09/27 05:50:43;;;;;;;10.80;9.63;;;11.90;99.90;;;;;;2039738;29;20027;-72
2022/09/27 05:51:44;;;;;;;10.98;9.50;;;11.90;99.90;;;;;;2029491;29;20028;-76
2022/09/27 05:52:46;;;;;;;13.82;12.18;;;11.90;99.90;;;;;;2031303;29;20035;-76
2022/09/27 05:53:47;;;;;;;12.93;11.13;;;11.90;99.90;;;;;;2031700;29;20391;-74
2022/09/27 05:54:56;;;;;;;13.13;11.52;;;11.90;99.90;;;;;;2040432;29;20047;-73
2022/09/27 05:56:01;;;;;;;15.13;11.82;;;11.90;99.90;;;;;;2048205;29;20381;-74
2022/09/27 05:57:09;;;;;;;11.95;10.43;;;11.90;99.90;;;;;;2045602;29;20023;-75
2022/09/27 05:58:21;;;;;;;11.30;9.73;;;11.90;99.90;;;;;;2040070;29;20043;-78
2022/09/27 05:59:33;;;;;;;10.43;9.30;;;11.90;99.90;;;;;;2034578;29;20056;-78
2022/09/27 06:01:07;;;;;;;13.30;11.27;;;11.90;99.90;;;;;;2042489;29;20035;-75
2022/09/27 06:02:26;;;;;;;;;;;11.90;99.90;;;;;;2041648;29;20020;-76